createdAt,value
2023-04-18T00:01:12.331Z,10.96
2023-04-18T00:03:45.857Z,10.96
2023-04-18T00:06:22.210Z,11.05
2023-04-18T00:08:55.118Z,10.94
2023-04-18T00:11:27.964Z,10.90
2023-04-18T00:14:00.758Z,10.89
2023-04-18T00:16:33.902Z,10.88
2023-04-18T00:19:08.775Z,10.86
2023-04-18T00:21:44.756Z,10.85
2023-04-18T00:24:17.746Z,10.85
2023-04-18T00:26:50.673Z,10.84
2023-04-18T00:29:31.717Z,10.86
2023-04-18T00:32:04.564Z,10.86
2023-04-18T00:34:37.613Z,10.85
2023-04-18T00:37:11.999Z,10.83
2023-04-18T00:39:45.096Z,10.82
2023-04-18T00:42:17.860Z,10.82
2023-04-18T00:44:51.583Z,10.92
2023-04-18T00:47:24.465Z,10.79
2023-04-18T00:49:57.900Z,10.77
2023-04-18T00:52:33.796Z,10.77
2023-04-18T00:55:09.477Z,10.76
2023-04-18T00:57:43.350Z,10.74
2023-04-18T01:00:16.787Z,10.75
2023-04-18T01:02:53.216Z,10.73
2023-04-18T01:05:27.306Z,10.71
2023-04-18T01:08:01.998Z,10.70
2023-04-18T01:10:34.998Z,10.68
2023-04-18T01:13:12.299Z,10.67
2023-04-18T01:15:47.547Z,10.66
2023-04-18T01:18:20.887Z,10.61
2023-04-18T01:20:57.116Z,10.57
2023-04-18T01:23:31.507Z,10.58
2023-04-18T01:26:05.967Z,10.55
2023-04-18T01:28:38.784Z,10.50
2023-04-18T01:31:13.814Z,10.48
2023-04-18T01:33:46.979Z,10.46
2023-04-18T01:36:22.135Z,10.45
2023-04-18T01:38:55.036Z,10.44
2023-04-18T01:41:32.593Z,10.43
2023-04-18T01:44:06.420Z,10.46
2023-04-18T01:46:40.205Z,10.45
2023-04-18T01:49:12.872Z,10.55
2023-04-18T01:51:47.930Z,10.46
2023-04-18T01:54:20.804Z,10.43
2023-04-18T01:56:54.960Z,10.43
2023-04-18T01:59:28.660Z,10.45
2023-04-18T02:02:01.608Z,10.43
2023-04-18T02:04:34.580Z,10.41
2023-04-18T02:07:07.647Z,10.38
2023-04-18T02:09:41.327Z,10.48
2023-04-18T02:12:17.717Z,10.35
2023-04-18T02:14:53.763Z,10.32
2023-04-18T02:17:26.624Z,10.32
2023-04-18T02:20:00.654Z,10.33
2023-04-18T02:22:33.484Z,10.33
2023-04-18T02:25:07.619Z,10.33
2023-04-18T02:27:41.883Z,10.33
2023-04-18T02:30:15.224Z,10.30
2023-04-18T02:32:48.106Z,10.30
2023-04-18T02:35:21.283Z,10.27
2023-04-18T02:37:54.747Z,10.30
2023-04-18T02:40:27.552Z,10.30
2023-04-18T02:43:02.586Z,10.27
2023-04-18T02:45:35.575Z,10.28
2023-04-18T02:48:08.605Z,10.31
2023-04-18T02:50:41.985Z,10.31
2023-04-18T02:53:14.903Z,10.33
2023-04-18T02:55:58.331Z,10.35
2023-04-18T02:58:41.290Z,10.34
2023-04-18T03:01:34.255Z,10.47
2023-04-18T03:04:14.259Z,10.37
2023-04-18T03:06:50.112Z,10.39
2023-04-18T03:09:24.301Z,10.40
2023-04-18T03:12:06.552Z,10.40
2023-04-18T03:14:44.485Z,10.39
2023-04-18T03:17:19.094Z,10.40
2023-04-18T03:19:54.746Z,10.38
2023-04-18T03:22:27.655Z,10.37
2023-04-18T03:25:05.271Z,10.35
2023-04-18T03:27:47.975Z,10.34
2023-04-18T03:30:24.444Z,10.34
2023-04-18T03:33:02.858Z,10.36
2023-04-18T03:35:36.082Z,10.38
2023-04-18T03:38:08.889Z,10.38
2023-04-18T03:40:44.849Z,10.40
2023-04-18T03:43:25.156Z,10.42
2023-04-18T03:46:02.078Z,10.41
2023-04-18T03:48:37.321Z,10.42
2023-04-18T03:51:15.126Z,10.37
2023-04-18T03:53:50.308Z,10.34
2023-04-18T03:56:24.045Z,10.31
2023-04-18T03:58:59.231Z,10.25
2023-04-18T04:01:34.033Z,10.24
2023-04-18T04:04:09.359Z,10.24
2023-04-18T04:06:44.471Z,10.25
2023-04-18T04:09:17.525Z,10.24
2023-04-18T04:11:51.431Z,10.22
2023-04-18T04:14:25.252Z,10.16
2023-04-18T04:17:00.905Z,10.12
2023-04-18T04:19:34.698Z,10.08
2023-04-18T04:22:14.912Z,10.09
2023-04-18T04:24:48.788Z,10.10
2023-04-18T04:27:26.950Z,10.13
2023-04-18T04:30:02.604Z,10.14
2023-04-18T04:32:38.930Z,10.16
2023-04-18T04:35:11.926Z,10.16
2023-04-18T04:37:45.206Z,10.17
2023-04-18T04:40:27.924Z,10.20
2023-04-18T04:43:28.805Z,10.25
2023-04-18T04:46:03.970Z,10.30
2023-04-18T04:48:38.338Z,10.32
2023-04-18T04:51:11.242Z,10.34
2023-04-18T04:53:44.224Z,10.36
2023-04-18T04:56:17.188Z,10.36
2023-04-18T04:58:50.549Z,10.35
2023-04-18T05:01:27.623Z,10.34
2023-04-18T05:04:02.201Z,10.37
2023-04-18T05:06:35.448Z,10.39
2023-04-18T05:09:08.370Z,10.43
2023-04-18T05:11:41.169Z,10.43
2023-04-18T05:14:14.108Z,10.44
2023-04-18T05:16:47.583Z,10.45
2023-04-18T05:19:21.777Z,10.47
2023-04-18T05:21:54.775Z,10.52
2023-04-18T05:24:27.664Z,10.57
2023-04-18T05:27:01.262Z,10.62
2023-04-18T05:29:34.148Z,10.67
2023-04-18T05:32:07.671Z,10.73
2023-04-18T05:34:48.358Z,10.77
2023-04-18T05:37:22.268Z,10.78
2023-04-18T05:39:55.099Z,10.80
2023-04-18T05:42:27.962Z,10.82
2023-04-18T05:45:01.000Z,10.83
2023-04-18T05:47:33.967Z,10.87
2023-04-18T05:50:09.881Z,10.87
2023-04-18T05:52:42.829Z,10.88
2023-04-18T05:55:15.643Z,10.88
2023-04-18T05:57:48.565Z,10.89
2023-04-18T06:00:21.929Z,10.87
2023-04-18T06:02:55.226Z,10.87
2023-04-18T06:05:30.298Z,10.88
2023-04-18T06:08:03.612Z,10.86
2023-04-18T06:10:38.860Z,10.81
2023-04-18T06:13:12.311Z,10.81
2023-04-18T06:15:45.181Z,10.81
2023-04-18T06:18:18.064Z,10.83
2023-04-18T06:20:52.745Z,10.87
2023-04-18T06:23:25.566Z,10.90
2023-04-18T06:25:58.847Z,10.97
2023-04-18T06:28:31.699Z,11.01
2023-04-18T06:31:04.710Z,11.04
2023-04-18T06:33:38.641Z,11.07
2023-04-18T06:36:12.917Z,11.12
2023-04-18T06:38:45.809Z,11.19
2023-04-18T06:41:18.613Z,11.27
2023-04-18T06:44:02.722Z,11.32
2023-04-18T06:46:36.793Z,11.35
2023-04-18T06:49:09.796Z,11.40
2023-04-18T06:51:44.044Z,11.43
2023-04-18T06:54:17.179Z,11.48
2023-04-18T06:56:50.055Z,11.56
2023-04-18T06:59:23.405Z,11.66
2023-04-18T07:01:56.227Z,11.75
2023-04-18T07:04:29.254Z,11.86
2023-04-18T07:07:05.180Z,11.99
2023-04-18T07:09:38.106Z,12.12
2023-04-18T07:12:11.104Z,12.22
2023-04-18T07:14:43.867Z,12.29
2023-04-18T07:17:16.716Z,12.32
2023-04-18T07:19:49.549Z,12.35
2023-04-18T07:22:35.140Z,12.42
2023-04-18T07:25:08.855Z,12.52
2023-04-18T07:27:41.719Z,12.57
2023-04-18T07:30:15.248Z,12.59
2023-04-18T07:32:48.336Z,12.58
2023-04-18T07:35:21.714Z,12.62
2023-04-18T07:37:56.146Z,12.66
2023-04-18T07:40:29.044Z,12.73
2023-04-18T07:43:01.865Z,12.82
2023-04-18T07:45:35.797Z,12.93
2023-04-18T07:48:08.743Z,13.00
2023-04-18T07:50:41.564Z,13.05
2023-04-18T07:53:16.023Z,13.11
2023-04-18T07:55:48.883Z,13.18
2023-04-18T07:58:21.853Z,13.26
2023-04-18T08:00:54.644Z,13.29
2023-04-18T08:03:28.221Z,13.32
2023-04-18T08:06:02.400Z,13.47
2023-04-18T08:08:36.808Z,13.39
2023-04-18T08:11:09.655Z,13.39
2023-04-18T08:13:42.554Z,13.41
2023-04-18T08:16:17.305Z,13.43
2023-04-18T08:18:50.590Z,13.48
2023-04-18T08:21:23.440Z,13.53
2023-04-18T08:23:57.775Z,13.57
2023-04-18T08:26:30.795Z,13.62
2023-04-18T08:29:03.791Z,13.68
2023-04-18T08:31:36.677Z,13.72
2023-04-18T08:34:09.636Z,13.78
2023-04-18T08:36:42.457Z,13.78
2023-04-18T08:39:16.672Z,13.79
2023-04-18T08:41:59.474Z,13.86
2023-04-18T08:44:32.835Z,13.92
2023-04-18T08:47:06.249Z,14.03
2023-04-18T08:49:39.122Z,14.25
2023-04-18T08:52:14.218Z,14.41
2023-04-18T08:54:49.108Z,14.53
2023-04-18T08:57:27.012Z,14.57
2023-04-18T09:00:01.572Z,14.57
2023-04-18T09:02:42.824Z,14.65
2023-04-18T09:05:19.044Z,14.70
2023-04-18T09:07:53.268Z,14.73
2023-04-18T09:10:29.170Z,14.73
2023-04-18T09:13:04.445Z,14.79
2023-04-18T09:15:37.508Z,14.78
2023-04-18T09:18:10.951Z,14.85
2023-04-18T09:20:44.654Z,14.91
2023-04-18T09:23:23.443Z,15.11
2023-04-18T09:25:59.171Z,15.17
2023-04-18T09:28:37.665Z,15.28
2023-04-18T09:31:15.305Z,15.43
2023-04-18T09:33:54.153Z,15.56
2023-04-18T09:36:28.203Z,15.64
2023-04-18T09:39:02.063Z,15.74
2023-04-18T09:41:36.333Z,15.85
2023-04-18T09:44:14.393Z,15.86
2023-04-18T09:46:49.451Z,15.85
2023-04-18T09:49:24.370Z,15.82
2023-04-18T09:51:57.633Z,15.83
2023-04-18T09:54:33.976Z,15.88
2023-04-18T09:57:13.655Z,15.94
2023-04-18T09:59:52.426Z,16.14
2023-04-18T10:02:27.785Z,16.28
2023-04-18T10:05:01.985Z,16.37
2023-04-18T10:07:35.161Z,16.51
2023-04-18T10:10:09.123Z,16.73
2023-04-18T10:12:43.470Z,16.93
2023-04-18T10:15:17.809Z,17.16
2023-04-18T10:18:04.345Z,17.21
2023-04-18T10:20:38.399Z,17.20
2023-04-18T10:23:36.790Z,17.23
2023-04-18T10:26:10.510Z,17.15
2023-04-18T10:28:56.844Z,17.13
2023-04-18T10:31:30.499Z,17.01
2023-04-18T10:34:08.144Z,16.89
2023-04-18T10:37:04.558Z,16.85
2023-04-18T10:39:58.286Z,16.90
2023-04-18T10:42:59.428Z,16.89
2023-04-18T10:45:36.539Z,16.89
2023-04-18T10:48:24.772Z,16.91
2023-04-18T10:51:14.962Z,16.97
2023-04-18T10:53:51.089Z,17.06
2023-04-18T10:56:26.094Z,17.14
2023-04-18T10:59:02.509Z,17.32
2023-04-18T11:01:38.986Z,17.60
2023-04-18T11:04:14.434Z,17.94
2023-04-18T11:06:51.599Z,18.30
2023-04-18T11:09:25.050Z,18.63
2023-04-18T11:12:04.648Z,19.08
2023-04-18T11:14:41.456Z,19.38
2023-04-18T11:17:20.696Z,19.76
2023-04-18T11:20:01.354Z,20.19
2023-04-18T11:22:34.349Z,20.51
2023-04-18T11:25:09.218Z,20.80
2023-04-18T11:27:44.231Z,21.06
2023-04-18T11:30:17.202Z,21.28
2023-04-18T11:32:51.687Z,21.40
2023-04-18T11:35:24.801Z,21.29
2023-04-18T11:37:57.673Z,20.88
2023-04-18T11:40:30.777Z,20.26
2023-04-18T11:43:04.793Z,19.65
2023-04-18T11:45:37.637Z,19.16
2023-04-18T11:48:11.961Z,18.81
2023-04-18T11:50:44.782Z,18.60
2023-04-18T11:53:33.466Z,18.49
2023-04-18T11:56:07.237Z,18.40
2023-04-18T11:58:40.161Z,18.31
2023-04-18T12:01:17.818Z,18.20
2023-04-18T12:04:05.925Z,18.22
2023-04-18T12:06:48.352Z,18.20
2023-04-18T12:09:22.737Z,18.23
2023-04-18T12:11:59.704Z,18.30
2023-04-18T12:14:32.536Z,18.41
2023-04-18T12:17:05.392Z,18.41
2023-04-18T12:19:39.682Z,18.30
2023-04-18T12:22:16.911Z,18.17
2023-04-18T12:25:26.187Z,18.10
2023-04-18T12:28:02.391Z,18.00
2023-04-18T12:30:37.589Z,17.98
2023-04-18T12:33:11.186Z,17.92
2023-04-18T12:35:46.408Z,17.89
2023-04-18T12:38:22.116Z,17.89
2023-04-18T12:40:54.991Z,17.88
2023-04-18T12:43:27.960Z,17.94
2023-04-18T12:46:01.258Z,18.09
2023-04-18T12:48:34.219Z,18.17
2023-04-18T12:51:08.577Z,18.15
2023-04-18T12:53:41.490Z,18.03
2023-04-18T12:56:14.458Z,17.88
2023-04-18T12:58:47.294Z,17.73
2023-04-18T13:01:20.217Z,17.62
2023-04-18T13:04:03.987Z,17.53
2023-04-18T13:06:42.998Z,17.43
2023-04-18T13:09:16.642Z,17.30
2023-04-18T13:11:49.709Z,17.14
2023-04-18T13:14:22.893Z,16.99
2023-04-18T13:16:58.785Z,16.87
2023-04-18T13:19:32.663Z,16.80
2023-04-18T13:22:07.576Z,16.70
2023-04-18T13:24:40.435Z,16.66
2023-04-18T13:27:13.451Z,16.63
2023-04-18T13:29:51.213Z,16.62
2023-04-18T13:32:40.973Z,16.62
2023-04-18T13:35:20.793Z,16.63
2023-04-18T13:37:55.145Z,16.65
2023-04-18T13:40:39.151Z,16.64
2023-04-18T13:43:15.539Z,16.66
2023-04-18T13:45:55.450Z,16.68
2023-04-18T13:48:28.405Z,16.70
2023-04-18T13:51:07.166Z,16.73
2023-04-18T13:53:43.497Z,16.74
2023-04-18T13:56:16.788Z,16.76
2023-04-18T13:58:49.833Z,16.76
2023-04-18T14:01:23.399Z,16.75
2023-04-18T14:03:56.443Z,16.78
2023-04-18T14:06:32.748Z,16.80
2023-04-18T14:09:07.835Z,16.79
2023-04-18T14:11:40.842Z,16.80
2023-04-18T14:14:13.925Z,16.84
2023-04-18T14:16:46.809Z,16.90
2023-04-18T14:19:19.950Z,16.94
2023-04-18T14:21:52.914Z,16.92
2023-04-18T14:24:42.421Z,16.93
2023-04-18T14:27:15.801Z,16.91
2023-04-18T14:29:49.531Z,16.91
2023-04-18T14:32:34.536Z,16.83
2023-04-18T14:35:11.321Z,16.75
2023-04-18T14:37:44.782Z,16.64
2023-04-18T14:40:19.388Z,16.53
2023-04-18T14:42:52.549Z,16.44
2023-04-18T14:45:28.312Z,16.43
2023-04-18T14:48:04.333Z,16.40
2023-04-18T14:50:38.734Z,16.39
2023-04-18T14:53:13.646Z,16.41
2023-04-18T14:55:48.030Z,16.45
2023-04-18T14:58:21.798Z,16.49
2023-04-18T15:01:00.754Z,16.52
2023-04-18T15:03:34.278Z,16.56
2023-04-18T15:06:08.122Z,16.61
2023-04-18T15:11:42.247Z,16.63
2023-04-18T15:14:15.807Z,16.65
2023-04-18T15:16:50.326Z,16.64
2023-04-18T15:19:24.596Z,16.60
2023-04-18T15:21:57.554Z,16.60
2023-04-18T15:24:30.653Z,16.61
2023-04-18T15:27:11.347Z,16.62
2023-04-18T15:29:44.383Z,16.59
2023-04-18T15:32:18.073Z,16.55
2023-04-18T15:34:53.951Z,16.49
2023-04-18T15:37:27.867Z,16.48
2023-04-18T15:40:06.074Z,16.46
2023-04-18T15:42:41.590Z,16.44
2023-04-18T15:45:15.161Z,16.45
2023-04-18T15:47:47.959Z,16.56
2023-04-18T15:50:21.113Z,16.44
2023-04-18T15:52:54.166Z,16.43
2023-04-18T15:55:27.208Z,16.42
2023-04-18T15:58:01.586Z,16.43
2023-04-18T16:00:34.478Z,16.45
2023-04-18T16:03:09.894Z,16.46
2023-04-18T16:05:42.997Z,16.43
2023-04-18T16:08:18.776Z,16.39
2023-04-18T16:10:53.053Z,16.33
2023-04-18T16:13:31.382Z,16.26
2023-04-18T16:16:05.578Z,16.23
2023-04-18T16:18:38.522Z,16.18
2023-04-18T16:21:18.667Z,16.15
2023-04-18T16:23:51.530Z,16.11
2023-04-18T16:26:24.984Z,16.08
2023-04-18T16:28:59.213Z,16.05
2023-04-18T16:31:32.240Z,16.05
2023-04-18T16:34:08.015Z,16.00
2023-04-18T16:36:40.974Z,15.94
2023-04-18T16:39:15.760Z,15.89
2023-04-18T16:41:48.580Z,15.84
2023-04-18T16:44:22.807Z,15.81
2023-04-18T16:46:55.707Z,15.78
2023-04-18T16:49:28.727Z,15.77
2023-04-18T16:52:01.846Z,15.75
2023-04-18T16:54:34.850Z,15.75
2023-04-18T16:57:07.663Z,15.73
2023-04-18T16:59:41.966Z,15.71
2023-04-18T17:02:15.057Z,15.68
2023-04-18T17:04:48.993Z,15.64
2023-04-18T17:07:24.620Z,15.61
2023-04-18T17:10:00.604Z,15.59
2023-04-18T17:12:33.526Z,15.58
2023-04-18T17:15:08.846Z,15.55
2023-04-18T17:17:41.802Z,15.52
2023-04-18T17:20:15.994Z,15.49
2023-04-18T17:22:49.019Z,15.47
2023-04-18T17:25:24.448Z,15.43
2023-04-18T17:27:57.500Z,15.40
2023-04-18T17:30:31.770Z,15.36
2023-04-18T17:33:04.700Z,15.34
2023-04-18T17:35:37.654Z,15.31
2023-04-18T17:38:11.495Z,15.28
2023-04-18T17:40:48.418Z,15.23
2023-04-18T17:43:21.501Z,15.22
2023-04-18T17:45:56.935Z,15.19
2023-04-18T17:48:29.799Z,15.16
2023-04-18T17:51:02.722Z,15.13
2023-04-18T17:53:35.719Z,15.11
2023-04-18T17:56:08.640Z,15.10
2023-04-18T17:58:41.495Z,15.05
2023-04-18T18:01:19.889Z,15.03
2023-04-18T18:03:53.906Z,15.00
2023-04-18T18:06:27.852Z,15.00
2023-04-18T18:09:00.667Z,14.98
2023-04-18T18:11:33.499Z,14.97
2023-04-18T18:14:06.289Z,14.95
2023-04-18T18:16:40.912Z,14.95
2023-04-18T18:19:16.996Z,14.93
2023-04-18T18:21:52.756Z,14.88
2023-04-18T18:24:27.148Z,14.85
2023-04-18T18:27:00.472Z,14.84
2023-04-18T18:29:36.865Z,14.82
2023-04-18T18:32:11.112Z,14.76
2023-04-18T18:34:46.700Z,14.74
2023-04-18T18:37:19.735Z,14.70
2023-04-18T18:39:52.756Z,14.67
2023-04-18T18:42:25.749Z,14.63
2023-04-18T18:44:58.675Z,14.60
2023-04-18T18:47:34.262Z,14.58
2023-04-18T18:50:07.902Z,14.53
2023-04-18T18:52:43.097Z,14.50
2023-04-18T18:55:16.465Z,14.47
2023-04-18T18:57:49.460Z,14.44
2023-04-18T19:00:22.514Z,14.43
2023-04-18T19:02:59.122Z,14.41
2023-04-18T19:05:32.060Z,14.39
2023-04-18T19:08:06.541Z,14.37
2023-04-18T19:10:40.958Z,14.36
2023-04-18T19:13:18.782Z,14.35
2023-04-18T19:15:51.941Z,14.33
2023-04-18T19:18:27.990Z,14.31
2023-04-18T19:21:04.477Z,14.31
2023-04-18T19:23:37.382Z,14.29
2023-04-18T19:26:10.825Z,14.25
2023-04-18T19:28:43.658Z,14.22
2023-04-18T19:31:16.483Z,14.16
2023-04-18T19:33:53.208Z,14.11
2023-04-18T19:36:26.349Z,14.08
2023-04-18T19:38:59.234Z,14.07
2023-04-18T19:41:32.078Z,14.07
2023-04-18T19:44:05.506Z,14.04
2023-04-18T19:46:38.420Z,14.02
2023-04-18T19:49:12.911Z,13.97
2023-04-18T19:51:45.974Z,13.95
2023-04-18T19:54:21.640Z,13.91
2023-04-18T19:56:54.864Z,13.86
2023-04-18T19:59:27.749Z,13.83
2023-04-18T20:02:03.458Z,13.79
2023-04-18T20:04:41.721Z,13.74
2023-04-18T20:07:14.739Z,13.70
2023-04-18T20:09:47.580Z,13.66
2023-04-18T20:12:20.968Z,13.63
2023-04-18T20:14:55.815Z,13.59
2023-04-18T20:17:30.498Z,13.55
2023-04-18T20:20:11.461Z,13.52
2023-04-18T20:22:46.239Z,13.48
2023-04-18T20:25:19.196Z,13.45
2023-04-18T20:27:52.002Z,13.42
2023-04-18T20:30:25.023Z,13.39
2023-04-18T20:32:57.924Z,13.37
2023-04-18T20:35:32.125Z,13.35
2023-04-18T20:38:07.186Z,13.31
2023-04-18T20:40:40.231Z,13.29
2023-04-18T20:43:17.303Z,13.27
2023-04-18T20:45:51.466Z,13.23
2023-04-18T20:48:24.405Z,13.18
2023-04-18T20:50:58.582Z,13.14
2023-04-18T20:53:31.785Z,13.09
2023-04-18T20:56:07.876Z,13.02
2023-04-18T20:58:41.827Z,12.95
2023-04-18T21:01:14.896Z,12.90
2023-04-18T21:03:49.171Z,12.84
2023-04-18T21:06:23.463Z,12.78
2023-04-18T21:08:56.324Z,12.75
2023-04-18T21:11:29.606Z,12.71
2023-04-18T21:14:03.814Z,12.68
2023-04-18T21:16:39.356Z,12.65
2023-04-18T21:19:12.361Z,12.64
2023-04-18T21:21:50.798Z,12.62
2023-04-18T21:24:27.982Z,12.62
2023-04-18T21:27:00.765Z,12.62
2023-04-18T21:29:36.451Z,12.58
2023-04-18T21:32:09.389Z,12.55
2023-04-18T21:34:42.225Z,12.54
2023-04-18T21:37:16.610Z,12.50
2023-04-18T21:39:54.724Z,12.48
2023-04-18T21:42:30.782Z,12.45
2023-04-18T21:45:10.317Z,12.42
2023-04-18T21:47:45.451Z,12.42
2023-04-18T21:50:19.462Z,12.41
2023-04-18T21:52:57.339Z,12.38
2023-04-18T21:55:31.220Z,12.37
2023-04-18T21:58:06.959Z,12.38
2023-04-18T22:00:39.947Z,12.37
2023-04-18T22:03:13.189Z,12.38
2023-04-18T22:05:47.302Z,12.35
2023-04-18T22:08:25.858Z,12.32
2023-04-18T22:11:00.273Z,12.30
2023-04-18T22:13:33.926Z,12.29
2023-04-18T22:16:08.588Z,12.28
2023-04-18T22:18:41.432Z,12.28
2023-04-18T22:21:14.250Z,12.31
2023-04-18T22:23:48.678Z,12.31
2023-04-18T22:26:21.749Z,12.27
2023-04-18T22:28:54.534Z,12.24
2023-04-18T22:31:27.539Z,12.22
2023-04-18T22:34:01.649Z,12.19
2023-04-18T22:36:34.521Z,12.15
2023-04-18T22:39:10.098Z,12.11
2023-04-18T22:41:43.060Z,12.05
2023-04-18T22:44:16.230Z,12.02
2023-04-18T22:46:49.540Z,12.01
2023-04-18T22:49:23.252Z,12.01
2023-04-18T22:51:55.889Z,12.07
2023-04-18T22:54:30.049Z,11.97
2023-04-18T22:57:03.300Z,11.97
2023-04-18T22:59:36.219Z,11.97
2023-04-18T23:02:09.317Z,11.98
2023-04-18T23:04:45.340Z,11.98
2023-04-18T23:07:18.289Z,11.99
2023-04-18T23:09:52.512Z,12.00
2023-04-18T23:12:26.813Z,12.03
2023-04-18T23:14:59.621Z,12.05
2023-04-18T23:17:32.435Z,12.08
2023-04-18T23:20:06.897Z,12.08
2023-04-18T23:22:39.695Z,12.10
2023-04-18T23:25:14.061Z,12.09
2023-04-18T23:27:46.917Z,12.10
2023-04-18T23:30:19.744Z,12.10
2023-04-18T23:32:52.644Z,12.09
2023-04-18T23:35:25.518Z,12.07
2023-04-18T23:37:58.402Z,12.04
2023-04-18T23:40:32.769Z,12.01
2023-04-18T23:43:05.934Z,11.95
2023-04-18T23:45:38.747Z,11.91
2023-04-18T23:48:11.633Z,11.87
2023-04-18T23:50:46.874Z,11.80
2023-04-18T23:53:20.344Z,11.77
2023-04-18T23:55:54.696Z,11.73
2023-04-18T23:58:28.085Z,11.68
